createdAt,value
2023-05-06T00:01:40.700Z,2.53
2023-05-06T00:04:44.574Z,2.30
2023-05-06T00:07:47.475Z,3.07
2023-05-06T00:10:50.243Z,2.13
2023-05-06T00:13:53.971Z,2.50
2023-05-06T00:16:56.527Z,2.50
2023-05-06T00:20:00.399Z,2.00
2023-05-06T00:23:03.057Z,1.90
2023-05-06T00:26:06.094Z,1.50
2023-05-06T00:29:08.770Z,1.98
2023-05-06T00:32:11.498Z,2.00
2023-05-06T00:35:15.532Z,1.58
2023-05-06T00:38:19.571Z,1.77
2023-05-06T00:41:22.416Z,1.43
2023-05-06T00:44:25.071Z,1.77
2023-05-06T00:47:27.787Z,1.73
2023-05-06T00:50:33.201Z,1.92
2023-05-06T00:53:35.858Z,1.60
2023-05-06T00:56:38.530Z,2.28
2023-05-06T00:59:41.267Z,1.52
2023-05-06T01:02:47.558Z,1.73
2023-05-06T01:06:04.137Z,2.40
2023-05-06T01:09:14.629Z,2.37
2023-05-06T01:12:22.467Z,1.70
2023-05-06T01:15:30.258Z,1.70
2023-05-06T01:18:33.709Z,2.13
2023-05-06T01:24:42.650Z,1.57
2023-05-06T01:27:45.152Z,1.87
2023-05-06T01:30:54.449Z,1.40
2023-05-06T01:34:06.681Z,2.23
2023-05-06T01:37:14.991Z,1.50
2023-05-06T01:40:19.199Z,1.67
2023-05-06T01:43:22.574Z,1.57
2023-05-06T01:46:25.999Z,1.70
2023-05-06T01:52:31.213Z,1.90
2023-05-06T01:55:35.132Z,1.65
2023-05-06T01:58:38.310Z,2.07
2023-05-06T02:01:42.155Z,2.47
2023-05-06T02:04:45.016Z,1.50
2023-05-06T02:07:47.497Z,2.00
2023-05-06T02:10:51.414Z,1.50
2023-05-06T02:13:53.916Z,1.67
2023-05-06T02:16:56.429Z,1.80
2023-05-06T02:19:59.019Z,1.70
2023-05-06T02:23:01.597Z,1.95
2023-05-06T02:26:05.691Z,1.60
2023-05-06T02:29:08.185Z,1.37
2023-05-06T02:32:10.847Z,1.33
2023-05-06T02:35:13.341Z,1.52
2023-05-06T02:38:15.844Z,1.60
2023-05-06T02:41:19.663Z,2.17
2023-05-06T02:44:22.219Z,1.77
2023-05-06T02:47:25.209Z,1.38
2023-05-06T02:50:27.907Z,1.67
2023-05-06T02:53:30.504Z,1.52
2023-05-06T02:56:35.105Z,1.85
2023-05-06T02:59:37.869Z,1.80
2023-05-06T03:02:40.767Z,1.40
2023-05-06T03:05:43.326Z,1.67
2023-05-06T03:08:46.184Z,1.80
2023-05-06T03:11:50.232Z,1.45
2023-05-06T03:14:52.723Z,1.93
2023-05-06T03:17:55.346Z,1.87
2023-05-06T03:20:57.916Z,1.58
2023-05-06T03:24:00.946Z,2.00
2023-05-06T03:27:04.954Z,2.17
2023-05-06T03:30:09.500Z,2.43
2023-05-06T03:33:12.189Z,2.07
2023-05-06T03:36:15.077Z,2.30
2023-05-06T03:39:17.608Z,1.90
2023-05-06T03:42:21.599Z,2.07
2023-05-06T03:45:24.102Z,1.90
2023-05-06T03:48:26.754Z,2.53
2023-05-06T03:51:29.495Z,2.08
2023-05-06T03:54:32.065Z,2.15
2023-05-06T03:57:36.175Z,2.53
2023-05-06T04:00:39.044Z,2.30
2023-05-06T04:03:41.679Z,2.08
2023-05-06T04:06:44.977Z,2.17
2023-05-06T04:09:47.501Z,2.42
2023-05-06T04:12:52.279Z,3.20
2023-05-06T04:15:55.163Z,2.60
2023-05-06T04:18:59.027Z,2.57
2023-05-06T04:22:02.328Z,2.30
2023-05-06T04:25:05.392Z,2.70
2023-05-06T04:28:09.519Z,2.80
2023-05-06T04:31:12.212Z,2.60
2023-05-06T04:34:15.156Z,2.80
2023-05-06T04:37:18.867Z,2.70
2023-05-06T04:40:21.663Z,2.57
2023-05-06T04:43:26.471Z,2.45
2023-05-06T04:46:29.109Z,2.77
2023-05-06T04:49:31.687Z,5.20
2023-05-06T04:52:34.832Z,2.50
2023-05-06T04:55:37.318Z,2.28
2023-05-06T04:58:41.301Z,2.60
2023-05-06T05:01:44.025Z,2.50
2023-05-06T05:04:46.668Z,2.22
2023-05-06T05:07:49.223Z,1.95
2023-05-06T05:10:51.923Z,2.45
2023-05-06T05:13:57.405Z,2.28
2023-05-06T05:17:00.753Z,2.87
2023-05-06T05:20:04.774Z,2.05
2023-05-06T05:23:07.367Z,1.80
2023-05-06T05:26:09.887Z,1.83
2023-05-06T05:29:14.227Z,2.00
2023-05-06T05:32:17.082Z,1.70
2023-05-06T05:35:19.807Z,2.20
2023-05-06T05:38:23.512Z,1.95
2023-05-06T05:41:26.855Z,2.07
2023-05-06T05:44:31.245Z,2.67
2023-05-06T05:47:33.834Z,3.77
2023-05-06T05:50:36.451Z,3.33
2023-05-06T05:53:39.078Z,4.22
2023-05-06T05:56:41.721Z,3.75
2023-05-06T05:59:45.692Z,3.88
2023-05-06T06:02:48.378Z,3.50
2023-05-06T06:05:52.865Z,2.92
2023-05-06T06:08:55.574Z,2.40
2023-05-06T06:11:58.225Z,3.67
2023-05-06T06:15:02.346Z,3.50
2023-05-06T06:18:05.332Z,3.83
2023-05-06T06:21:07.947Z,2.90
2023-05-06T06:24:10.480Z,3.17
2023-05-06T06:27:13.157Z,2.72
2023-05-06T06:30:17.294Z,2.53
2023-05-06T06:33:19.916Z,2.07
2023-05-06T06:36:22.683Z,2.63
2023-05-06T06:39:25.871Z,2.55
2023-05-06T06:42:28.475Z,2.53
2023-05-06T06:45:32.493Z,2.78
2023-05-06T06:48:35.853Z,2.43
2023-05-06T06:54:41.228Z,2.37
2023-05-06T06:57:43.838Z,2.17
2023-05-06T07:00:47.853Z,2.63
2023-05-06T07:03:50.827Z,2.43
2023-05-06T07:06:53.764Z,1.80
2023-05-06T07:09:56.396Z,1.80
2023-05-06T07:12:59.185Z,2.05
2023-05-06T07:16:03.109Z,1.38
2023-05-06T07:19:05.658Z,0.80
2023-05-06T07:22:08.835Z,0.77
2023-05-06T07:25:11.670Z,0.90
2023-05-06T07:28:15.610Z,1.10
2023-05-06T07:31:21.036Z,1.37
2023-05-06T07:34:23.707Z,1.30
2023-05-06T07:37:26.215Z,1.40
2023-05-06T07:40:29.032Z,0.80
2023-05-06T07:43:31.826Z,1.10
2023-05-06T07:46:36.239Z,1.33
2023-05-06T07:49:40.728Z,1.20
2023-05-06T07:52:43.739Z,1.30
2023-05-06T07:55:46.708Z,1.45
2023-05-06T07:58:50.118Z,1.77
2023-05-06T08:01:54.309Z,3.03
2023-05-06T08:04:57.107Z,1.40
2023-05-06T08:08:00.336Z,1.10
2023-05-06T08:11:03.185Z,0.80
2023-05-06T08:14:05.948Z,1.30
2023-05-06T08:17:09.948Z,0.90
2023-05-06T08:20:14.412Z,0.90
2023-05-06T08:23:17.089Z,1.13
2023-05-06T08:26:19.829Z,0.90
2023-05-06T08:29:22.552Z,0.88
2023-05-06T08:32:26.867Z,0.77
2023-05-06T08:35:29.642Z,1.27
2023-05-06T08:38:32.524Z,0.85
2023-05-06T08:44:38.132Z,0.73
2023-05-06T08:47:42.587Z,1.02
2023-05-06T08:50:45.673Z,0.50
2023-05-06T08:56:54.230Z,0.75
2023-05-06T08:59:57.005Z,0.87
2023-05-06T09:03:01.756Z,1.27
2023-05-06T09:06:04.952Z,1.20
2023-05-06T09:12:11.509Z,0.87
2023-05-06T09:15:14.520Z,0.80
2023-05-06T09:18:18.637Z,1.10
2023-05-06T09:21:21.366Z,1.00
2023-05-06T09:24:25.220Z,0.50
2023-05-06T09:27:29.645Z,1.00
2023-05-06T09:30:32.155Z,1.00
2023-05-06T09:33:37.282Z,0.82
2023-05-06T09:36:40.129Z,0.90
2023-05-06T09:39:42.711Z,0.80
2023-05-06T09:42:45.708Z,0.88
2023-05-06T09:48:53.040Z,1.17
2023-05-06T09:51:57.729Z,1.03
2023-05-06T09:55:00.535Z,0.70
2023-05-06T09:58:04.724Z,1.70
2023-05-06T10:01:09.006Z,0.90
2023-05-06T10:04:14.468Z,0.90
2023-05-06T10:07:19.652Z,0.90
2023-05-06T10:10:25.300Z,0.90
2023-05-06T10:13:28.327Z,1.00
2023-05-06T10:16:31.232Z,1.25
2023-05-06T10:22:42.828Z,1.00
2023-05-06T10:25:47.891Z,1.00
2023-05-06T10:28:53.216Z,1.20
2023-05-06T10:31:57.668Z,0.87
2023-05-06T10:35:09.655Z,0.93
2023-05-06T10:38:16.442Z,1.00
2023-05-06T10:41:21.191Z,0.90
2023-05-06T10:44:57.394Z,1.30
2023-05-06T10:48:12.816Z,1.10
2023-05-06T10:51:24.774Z,1.00
2023-05-06T10:54:27.742Z,0.80
2023-05-06T11:00:34.944Z,0.90
2023-05-06T11:03:37.720Z,1.20
2023-05-06T11:06:43.107Z,0.80
2023-05-06T11:09:55.840Z,0.90
2023-05-06T11:12:58.632Z,1.10
2023-05-06T11:16:02.539Z,0.75
2023-05-06T11:19:06.716Z,0.80
2023-05-06T11:22:39.396Z,1.20
2023-05-06T11:25:43.518Z,1.43
2023-05-06T11:28:47.943Z,0.83
2023-05-06T11:31:50.909Z,1.00
2023-05-06T11:37:59.414Z,1.13
2023-05-06T11:41:02.158Z,1.13
2023-05-06T11:44:04.817Z,0.75
2023-05-06T11:47:08.678Z,0.52
2023-05-06T11:50:12.124Z,0.93
2023-05-06T11:53:18.958Z,0.97
2023-05-06T11:56:21.781Z,0.88
2023-05-06T11:59:30.194Z,0.98
2023-05-06T12:02:32.819Z,1.08
2023-05-06T12:05:35.558Z,0.90
2023-05-06T12:08:39.684Z,0.70
2023-05-06T12:11:44.883Z,0.88
2023-05-06T12:14:47.956Z,0.80
